Time;durP1;ratioP1;P1;durP2;ratioP2;P2;SDS_P1;SDS_P2;PMS_P1;PMS_P2;Temp;Humidity;BMP_temperature;BMP_pressure;BME280_temperature;BME280_humidity;BME280_pressure;Samples;Min_cycle;Max_cycle;Signal;HPM_P1;HPM_P2
2022/04/19 00:00:10;;;;;;;;;;;8.70;99.90;;;;;;5092859;28;20316;-48
2022/04/19 00:02:36;;;;;;;;;;;8.70;99.90;;;;;;5092968;28;19931;-46
2022/04/19 00:05:02;;;;;;;;;;;8.70;99.90;;;;;;5092760;28;20316;-50
2022/04/19 00:07:27;;;;;;;;;;;8.60;99.90;;;;;;5093002;28;19924;-47
2022/04/19 00:09:53;;;;;;;;;;;8.60;99.90;;;;;;5092568;28;19969;-48
2022/04/19 00:12:19;;;;;;;;;;;8.50;99.90;;;;;;5091324;28;19947;-48
2022/04/19 00:14:45;;;;;;;;;;;8.50;99.90;;;;;;5092833;28;19971;-49
2022/04/19 00:17:11;;;;;;;;;;;8.40;99.90;;;;;;5091579;28;19935;-47
2022/04/19 00:19:36;;;;;;;;;;;8.40;99.90;;;;;;5091464;28;19971;-48
2022/04/19 00:22:02;;;;;;;;;;;8.30;99.90;;;;;;5093124;28;20017;-49
2022/04/19 00:24:28;;;;;;;;;;;8.30;99.90;;;;;;5096491;28;19924;-47
2022/04/19 00:26:54;;;;;;;;;;;8.20;99.90;;;;;;5096706;28;19924;-46
2022/04/19 00:29:20;;;;;;;;;;;8.20;99.90;;;;;;5096519;28;19959;-48
2022/04/19 00:31:46;;;;;;;;;;;8.10;99.90;;;;;;5096618;28;19936;-49
2022/04/19 00:34:11;;;;;;;;;;;8.10;99.90;;;;;;5096393;28;19931;-51
2022/04/19 00:36:37;;;;;;;;;;;8.00;99.90;;;;;;5096429;28;19924;-51
2022/04/19 00:39:03;;;;;;;;;;;8.00;99.90;;;;;;5096140;28;20289;-46
2022/04/19 00:41:29;;;;;;;;;;;8.00;99.90;;;;;;5096325;28;19924;-47
2022/04/19 00:43:54;;;;;;;;;;;8.00;99.90;;;;;;5096363;28;19924;-50
2022/04/19 00:46:20;;;;;;;;;;;7.90;99.90;;;;;;5096499;28;19928;-47
2022/04/19 00:48:46;;;;;;;;;;;7.90;99.90;;;;;;5096127;28;19946;-47
2022/04/19 00:51:14;;;;;;;;;;;7.80;99.90;;;;;;5095903;28;19927;-49
2022/04/19 00:53:42;;;;;;;;;;;7.80;99.90;;;;;;5095853;28;20386;-47
2022/04/19 00:56:07;;;;;;;;;;;7.70;99.90;;;;;;5096172;28;19928;-47
2022/04/19 00:58:33;;;;;;;;;;;7.70;99.90;;;;;;5096001;28;19994;-47
2022/04/19 01:01:00;;;;;;;;;;;7.60;99.90;;;;;;5095983;28;19975;-47
2022/04/19 01:03:25;;;;;;;;;;;7.60;99.90;;;;;;5095842;28;19924;-51
2022/04/19 01:05:53;;;;;;;;;;;7.50;99.90;;;;;;5095773;28;20015;-49
2022/04/19 01:08:29;;;;;;;;;;;7.40;99.90;;;;;;5095678;28;20378;-49
2022/04/19 01:13:17;;;;;;;;;;;7.50;99.90;;;;;;5094644;28;19928;-48
2022/04/19 01:13:39;;;;;;;;;;;7.40;99.90;;;;;;5095514;28;20358;-49
2022/04/19 01:16:05;;;;;;;;;;;7.30;99.90;;;;;;5095636;28;19924;-47
2022/04/19 01:18:31;;;;;;;;;;;7.30;99.90;;;;;;5095253;28;20017;-47
2022/04/19 01:20:57;;;;;;;;;;;7.20;99.90;;;;;;5095831;28;19932;-50
2022/04/19 01:23:24;;;;;;;;;;;7.20;99.90;;;;;;5095664;28;20019;-48
2022/04/19 01:25:50;;;;;;;;;;;7.20;99.90;;;;;;5095405;28;20374;-46
2022/04/19 01:28:18;;;;;;;;;;;7.10;99.90;;;;;;5095478;28;19924;-48
2022/04/19 01:30:44;;;;;;;;;;;7.10;99.90;;;;;;5094021;28;19924;-48
2022/04/19 01:33:10;;;;;;;;;;;7.10;99.90;;;;;;5093595;28;19997;-46
2022/04/19 01:35:35;;;;;;;;;;;7.10;99.90;;;;;;5094656;28;19930;-47
2022/04/19 01:38:01;;;;;;;;;;;7.00;99.90;;;;;;5095189;28;19928;-46
2022/04/19 01:40:26;;;;;;;;;;;7.00;99.90;;;;;;5095064;28;20267;-49
2022/04/19 01:42:53;;;;;;;;;;;6.90;99.90;;;;;;5095166;28;19924;-49
2022/04/19 01:45:24;;;;;;;;;;;6.90;99.90;;;;;;5095231;28;19924;-46
2022/04/19 01:47:50;;;;;;;;;;;6.90;99.90;;;;;;5094838;28;20002;-48
2022/04/19 01:52:45;;;;;;;;;;;6.90;99.90;;;;;;5116585;22;20400;-48
2022/04/19 01:55:13;;;;;;;;;;;6.90;99.90;;;;;;5111047;28;19924;-47
2022/04/19 01:57:40;;;;;;;;;;;6.80;99.90;;;;;;5095212;28;19924;-48
2022/04/19 02:00:06;;;;;;;;;;;6.80;99.90;;;;;;5087544;28;20057;-47
2022/04/19 02:02:32;;;;;;;;;;;6.80;99.90;;;;;;5115384;28;19959;-47
2022/04/19 02:04:57;;;;;;;;;;;6.80;99.90;;;;;;5115678;28;20020;-48
2022/04/19 02:07:23;;;;;;;;;;;6.80;99.90;;;;;;5115679;28;19924;-47
2022/04/19 02:09:48;;;;;;;;;;;6.80;99.90;;;;;;5095396;28;19931;-47
2022/04/19 02:12:14;;;;;;;;;;;6.70;99.90;;;;;;5095097;28;19925;-46
2022/04/19 02:14:41;;;;;;;;;;;6.70;99.90;;;;;;5094805;28;19924;-47
2022/04/19 02:17:09;;;;;;;;;;;6.70;99.90;;;;;;5094694;28;19931;-46
2022/04/19 02:19:35;;;;;;;;;;;6.70;99.90;;;;;;5095118;28;19924;-46
2022/04/19 02:22:01;;;;;;;;;;;6.60;99.90;;;;;;5093702;28;19973;-48
2022/04/19 02:24:27;;;;;;;;;;;6.60;99.90;;;;;;5094783;28;20271;-48
2022/04/19 02:26:53;;;;;;;;;;;6.60;99.90;;;;;;5114885;28;19923;-47
2022/04/19 02:29:19;;;;;;;;;;;6.60;99.90;;;;;;5096830;28;19923;-48
2022/04/19 02:31:45;;;;;;;;;;;6.50;99.90;;;;;;5115213;28;19931;-47
2022/04/19 02:34:11;;;;;;;;;;;6.50;99.90;;;;;;5115099;28;20053;-47
2022/04/19 02:36:36;;;;;;;;;;;6.50;99.90;;;;;;5115114;28;19981;-46
2022/04/19 02:39:02;;;;;;;;;;;6.50;99.90;;;;;;5114681;28;20454;-46
2022/04/19 02:41:28;;;;;;;;;;;6.60;99.90;;;;;;5114827;28;19930;-47
2022/04/19 02:43:53;;;;;;;;;;;6.50;99.90;;;;;;5114797;28;20014;-50
2022/04/19 02:46:19;;;;;;;;;;;6.40;99.90;;;;;;5114449;28;19981;-50
2022/04/19 02:48:44;;;;;;;;;;;6.40;99.90;;;;;;5114859;28;19931;-48
2022/04/19 02:51:09;;;;;;;;;;;6.40;99.90;;;;;;5114505;28;19994;-48
2022/04/19 02:53:36;;;;;;;;;;;6.30;99.90;;;;;;5114678;28;19924;-49
2022/04/19 02:56:03;;;;;;;;;;;6.30;99.90;;;;;;5114542;28;20010;-47
2022/04/19 02:58:29;;;;;;;;;;;6.30;99.90;;;;;;5114897;28;19923;-47
2022/04/19 03:00:55;;;;;;;;;;;6.30;99.90;;;;;;5114616;28;19930;-48
2022/04/19 03:03:21;;;;;;;;;;;6.30;99.90;;;;;;5114455;28;20011;-47
2022/04/19 03:05:48;;;;;;;;;;;6.40;99.90;;;;;;5114470;28;19923;-46
2022/04/19 03:08:13;;;;;;;;;;;6.40;99.90;;;;;;5114522;28;19928;-47
2022/04/19 03:10:38;;;;;;;;;;;6.40;99.90;;;;;;5114340;28;20006;-47
2022/04/19 03:13:04;;;;;;;;;;;6.40;99.90;;;;;;5114872;28;19924;-49
2022/04/19 03:15:31;;;;;;;;;;;6.40;99.90;;;;;;5114107;28;19930;-47
2022/04/19 03:17:56;;;;;;;;;;;6.40;99.90;;;;;;5114226;28;19928;-49
2022/04/19 03:20:22;;;;;;;;;;;6.30;99.90;;;;;;5114233;28;20155;-46
2022/04/19 03:28:17;;;;;;;;;;;6.10;99.90;;;;;;5114098;28;19931;-47
2022/04/19 03:30:43;;;;;;;;;;;6.00;99.90;;;;;;5114038;28;19974;-48
2022/04/19 03:33:08;;;;;;;;;;;5.90;99.90;;;;;;5113982;28;20050;-48
2022/04/19 03:35:36;;;;;;;;;;;5.90;99.90;;;;;;5114040;28;20396;-48
2022/04/19 03:38:03;;;;;;;;;;;6.00;99.90;;;;;;5113822;28;19928;-49
2022/04/19 03:40:29;;;;;;;;;;;5.90;99.90;;;;;;5114022;28;19927;-47
2022/04/19 03:42:54;;;;;;;;;;;5.90;99.90;;;;;;5114039;28;20385;-47
2022/04/19 03:45:20;;;;;;;;;;;5.90;99.90;;;;;;5113815;28;19924;-47
2022/04/19 03:47:45;;;;;;;;;;;6.00;99.90;;;;;;5113818;28;19946;-47
2022/04/19 03:50:10;;;;;;;;;;;6.00;99.90;;;;;;5113852;28;19924;-48
2022/04/19 03:52:36;;;;;;;;;;;5.90;99.90;;;;;;5113804;28;19924;-46
2022/04/19 03:55:02;;;;;;;;;;;6.00;99.90;;;;;;5113539;28;19930;-47
2022/04/19 03:57:28;;;;;;;;;;;5.90;99.90;;;;;;5115086;28;19967;-47
2022/04/19 03:59:53;;;;;;;;;;;5.90;99.90;;;;;;5117972;28;19963;-47
2022/04/19 04:02:19;;;;;;;;;;;5.90;99.90;;;;;;5118004;28;19924;-48
2022/04/19 04:04:44;;;;;;;;;;;5.90;99.90;;;;;;5117795;28;19976;-47
2022/04/19 04:07:10;;;;;;;;;;;6.00;99.90;;;;;;5117838;28;19924;-47
2022/04/19 04:09:35;;;;;;;;;;;6.10;99.90;;;;;;5117514;28;20271;-47
2022/04/19 04:12:05;;;;;;;;;;;6.10;99.90;;;;;;5117866;28;19980;-46
2022/04/19 04:14:30;;;;;;;;;;;6.10;99.90;;;;;;5117695;28;19931;-47
2022/04/19 04:16:56;;;;;;;;;;;6.10;99.90;;;;;;5117800;28;19924;-47
2022/04/19 04:19:21;;;;;;;;;;;6.10;99.90;;;;;;5117542;28;19923;-47
2022/04/19 04:21:47;;;;;;;;;;;6.10;99.90;;;;;;5117606;28;19924;-48
2022/04/19 04:24:12;;;;;;;;;;;6.10;99.90;;;;;;5117301;28;20964;-47
2022/04/19 04:26:38;;;;;;;;;;;6.10;99.90;;;;;;5117606;28;20300;-47
2022/04/19 04:29:03;;;;;;;;;;;6.10;99.90;;;;;;5117395;28;20018;-48
2022/04/19 04:31:29;;;;;;;;;;;6.00;99.90;;;;;;5117451;28;19923;-45
2022/04/19 04:33:54;;;;;;;;;;;6.00;99.90;;;;;;5117270;28;19924;-48
2022/04/19 04:36:20;;;;;;;;;;;6.00;99.90;;;;;;5117751;28;20371;-50
2022/04/19 04:38:45;;;;;;;;;;;5.90;99.90;;;;;;5116891;28;19923;-47
2022/04/19 04:41:11;;;;;;;;;;;6.00;99.90;;;;;;5117305;28;19970;-48
2022/04/19 04:43:38;;;;;;;;;;;6.00;99.90;;;;;;5117142;28;19962;-47
2022/04/19 04:51:31;;;;;;;;;;;6.00;99.90;;;;;;5116870;28;20423;-47
2022/04/19 04:53:57;;;;;;;;;;;6.00;99.90;;;;;;5116970;28;19928;-46
2022/04/19 04:56:23;;;;;;;;;;;6.00;99.90;;;;;;5116855;28;20352;-47
2022/04/19 04:58:49;;;;;;;;;;;6.10;99.90;;;;;;5116707;28;20267;-47
2022/04/19 05:01:15;;;;;;;;;;;6.10;99.90;;;;;;5116865;28;19931;-46
2022/04/19 05:03:40;;;;;;;;;;;6.10;99.90;;;;;;5116715;28;20342;-46
2022/04/19 05:06:06;;;;;;;;;;;6.10;99.90;;;;;;5116778;28;19924;-49
2022/04/19 05:08:32;;;;;;;;;;;6.10;99.90;;;;;;5116742;28;20019;-49
2022/04/19 05:10:57;;;;;;;;;;;6.10;99.90;;;;;;5116568;28;19973;-49
2022/04/19 05:13:23;;;;;;;;;;;6.10;99.90;;;;;;5116608;28;20393;-48
2022/04/19 05:15:48;;;;;;;;;;;6.20;99.90;;;;;;5116634;28;19928;-48
2022/04/19 05:18:14;;;;;;;;;;;6.30;99.90;;;;;;5116277;28;20385;-48
2022/04/19 05:20:40;;;;;;;;;;;6.30;99.90;;;;;;5116338;28;20331;-46
2022/04/19 05:23:06;;;;;;;;;;;6.30;99.90;;;;;;5116202;28;20374;-47
2022/04/19 05:25:31;;;;;;;;;;;6.30;99.90;;;;;;5116398;28;19924;-51
2022/04/19 05:27:57;;;;;;;;;;;6.40;99.90;;;;;;5116342;28;20350;-47
2022/04/19 05:30:22;;;;;;;;;;;6.40;99.90;;;;;;5116238;28;19923;-51
2022/04/19 05:32:48;;;;;;;;;;;6.50;99.90;;;;;;5116222;28;19923;-48
2022/04/19 05:35:14;;;;;;;;;;;6.60;99.90;;;;;;5116256;28;19959;-48
2022/04/19 05:37:39;;;;;;;;;;;6.60;99.90;;;;;;5116112;28;19930;-48
2022/04/19 05:40:05;;;;;;;;;;;6.70;99.90;;;;;;5116081;28;19998;-47
2022/04/19 05:42:31;;;;;;;;;;;6.80;99.90;;;;;;5115964;28;19947;-50
2022/04/19 05:44:56;;;;;;;;;;;7.60;99.90;;;;;;5115808;28;19976;-47
2022/04/19 05:47:22;;;;;;;;;;;8.80;99.90;;;;;;5116330;28;19947;-51
2022/04/19 05:49:47;;;;;;;;;;;9.90;99.90;;;;;;5115938;28;19931;-47
2022/04/19 05:52:13;;;;;;;;;;;10.60;99.90;;;;;;5115640;28;19966;-49
2022/04/19 05:54:38;;;;;;;;;;;11.70;99.90;;;;;;5115812;28;19924;-47
2022/04/19 05:57:04;;;;;;;;;;;12.20;99.90;;;;;;5115707;28;19931;-48
2022/04/19 05:59:29;;;;;;;;;;;12.90;99.90;;;;;;5115541;28;20449;-48
2022/04/19 06:04:54;;;;;;;;;;;13.70;94.10;;;;;;5115624;28;20676;-49
2022/04/19 06:07:23;;;;;;;;;;;13.90;93.70;;;;;;5115666;28;19959;-51
2022/04/19 06:09:49;;;;;;;;;;;14.40;91.70;;;;;;5115688;28;19924;-46
2022/04/19 06:12:14;;;;;;;;;;;14.60;88.00;;;;;;5115207;28;19923;-49
2022/04/19 06:14:40;;;;;;;;;;;14.50;88.80;;;;;;5115529;28;19976;-51
2022/04/19 06:17:06;;;;;;;;;;;14.80;87.50;;;;;;5115509;28;20419;-46
2022/04/19 06:19:31;;;;;;;;;;;15.40;86.30;;;;;;5114982;28;19943;-47
2022/04/19 06:21:57;;;;;;;;;;;15.30;82.10;;;;;;5115075;28;19978;-46
2022/04/19 06:24:23;;;;;;;;;;;15.50;80.80;;;;;;5115225;28;19924;-48
2022/04/19 06:26:48;;;;;;;;;;;15.90;82.30;;;;;;5115034;28;19924;-48
2022/04/19 06:29:14;;;;;;;;;;;16.10;78.00;;;;;;5115212;28;19935;-50
2022/04/19 06:31:43;;;;;;;;;;;16.50;77.70;;;;;;5114942;28;20381;-48
2022/04/19 06:34:09;;;;;;;;;;;16.90;77.20;;;;;;5115046;28;19969;-49
2022/04/19 06:36:34;;;;;;;;;;;16.70;74.00;;;;;;5114942;28;19923;-48
2022/04/19 06:39:00;;;;;;;;;;;16.90;73.80;;;;;;5114678;28;19924;-49
2022/04/19 06:41:25;;;;;;;;;;;17.30;73.10;;;;;;5114649;28;19976;-48
2022/04/19 06:43:51;;;;;;;;;;;17.40;71.90;;;;;;5114963;28;19992;-52
2022/04/19 06:46:17;;;;;;;;;;;17.10;69.50;;;;;;5114786;28;19931;-46
2022/04/19 06:48:43;;;;;;;;;;;17.40;70.10;;;;;;5114820;28;19923;-47
2022/04/19 06:51:09;;;;;;;;;;;17.50;68.80;;;;;;5096063;28;19924;-48
2022/04/19 06:53:37;;;;;;;;;;;16.70;69.50;;;;;;5114595;28;19946;-47
2022/04/19 06:56:04;;;;;;;;;;;17.10;68.70;;;;;;5114385;28;19930;-50
2022/04/19 06:58:32;;;;;;;;;;;17.10;69.30;;;;;;5114519;28;19931;-48
2022/04/19 07:00:58;;;;;;;;;;;16.80;69.40;;;;;;5114535;28;19924;-46
2022/04/19 07:03:26;;;;;;;;;;;16.80;70.40;;;;;;5114806;28;19931;-48
2022/04/19 07:05:51;;;;;;;;;;;16.90;71.20;;;;;;5114269;28;20002;-47
2022/04/19 07:08:17;;;;;;;;;;;16.90;70.10;;;;;;5114229;28;19930;-49
2022/04/19 07:10:42;;;;;;;;;;;16.50;75.90;;;;;;5114214;28;19923;-47
2022/04/19 07:13:08;;;;;;;;;;;16.90;71.50;;;;;;5114422;28;19975;-51
2022/04/19 07:15:34;;;;;;;;;;;16.90;72.10;;;;;;5114325;28;20374;-51
2022/04/19 07:17:59;;;;;;;;;;;17.00;70.30;;;;;;5114498;28;19923;-48
2022/04/19 07:28:37;;;;;;;;;;;14.90;75.80;;;;;;5114094;28;19969;-49
2022/04/19 07:31:03;;;;;;;;;;;14.30;80.20;;;;;;5113858;28;19923;-50
2022/04/19 07:33:29;;;;;;;;;;;13.80;85.10;;;;;;5113249;28;20010;-47
2022/04/19 07:35:55;;;;;;;;;;;13.70;88.20;;;;;;5114093;28;19942;-48
2022/04/19 07:38:21;;;;;;;;;;;13.40;91.30;;;;;;5114033;28;20071;-51
2022/04/19 07:40:46;;;;;;;;;;;13.30;92.80;;;;;;5113782;28;19931;-50
2022/04/19 07:43:12;;;;;;;;;;;13.40;93.30;;;;;;5113984;28;20023;-50
2022/04/19 07:45:37;;;;;;;;;;;13.60;93.40;;;;;;5114294;28;19966;-50
2022/04/19 07:48:04;;;;;;;;;;;13.80;93.30;;;;;;5113683;28;20271;-49
2022/04/19 07:50:29;;;;;;;;;;;13.80;93.50;;;;;;5113830;28;19928;-48
2022/04/19 07:52:55;;;;;;;;;;;14.00;93.00;;;;;;5113308;28;20008;-50
2022/04/19 07:55:21;;;;;;;;;;;14.20;92.80;;;;;;5113722;28;19931;-47
2022/04/19 07:57:46;;;;;;;;;;;14.30;93.80;;;;;;5113593;28;20301;-47
2022/04/19 08:00:13;;;;;;;;;;;14.20;92.40;;;;;;5113610;28;19967;-47
2022/04/19 08:02:39;;;;;;;;;;;14.20;92.20;;;;;;5095302;28;19931;-52
2022/04/19 08:05:04;;;;;;;;;;;14.20;91.60;;;;;;5113500;28;19928;-49
2022/04/19 08:07:30;;;;;;;;;;;14.40;92.10;;;;;;5113340;28;20010;-47
2022/04/19 08:09:58;;;;;;;;;;;14.40;92.00;;;;;;5113694;28;19924;-51
2022/04/19 08:12:24;;;;;;;;;;;14.60;92.50;;;;;;5113638;28;19957;-47
2022/04/19 08:14:49;;;;;;;;;;;14.80;92.00;;;;;;5113466;28;19925;-49
2022/04/19 08:17:15;;;;;;;;;;;15.00;90.50;;;;;;5113197;28;19971;-47
2022/04/19 08:19:40;;;;;;;;;;;15.10;90.50;;;;;;5113537;28;19949;-50
2022/04/19 08:22:06;;;;;;;;;;;15.20;90.00;;;;;;5113561;28;20032;-47
2022/04/19 08:24:31;;;;;;;;;;;15.20;89.80;;;;;;5113819;28;19924;-49
2022/04/19 08:26:57;;;;;;;;;;;15.30;88.40;;;;;;5113394;28;19946;-49
2022/04/19 08:29:23;;;;;;;;;;;15.40;88.00;;;;;;5113503;28;20010;-47
2022/04/19 08:31:48;;;;;;;;;;;15.40;85.30;;;;;;5113412;28;19931;-48
2022/04/19 08:34:14;;;;;;;;;;;15.20;84.40;;;;;;5113212;28;19928;-50
2022/04/19 08:36:40;;;;;;;;;;;15.40;86.40;;;;;;5113183;28;20301;-47
2022/04/19 08:39:06;;;;;;;;;;;15.50;87.80;;;;;;5113062;28;19924;-50
2022/04/19 08:41:31;;;;;;;;;;;15.40;87.00;;;;;;5113310;28;19927;-48
2022/04/19 08:43:57;;;;;;;;;;;15.60;88.10;;;;;;5115339;28;19931;-50
2022/04/19 08:46:25;;;;;;;;;;;15.60;86.30;;;;;;5117130;28;19969;-49
2022/04/19 08:48:51;;;;;;;;;;;15.60;86.80;;;;;;5116971;28;20390;-50
2022/04/19 08:51:18;;;;;;;;;;;15.80;88.50;;;;;;5116918;28;19924;-48
2022/04/19 08:59:12;;;;;;;;;;;15.70;87.00;;;;;;5116804;28;19931;-49
2022/04/19 09:01:39;;;;;;;;;;;15.60;87.10;;;;;;5098633;28;19923;-51
2022/04/19 09:04:05;;;;;;;;;;;15.50;85.20;;;;;;5116876;28;19924;-50
2022/04/19 09:06:53;;;;;;;;;;;15.50;84.70;;;;;;5116593;28;19931;-49
2022/04/19 09:09:25;;;;;;;;;;;15.60;84.20;;;;;;5116682;28;19967;-51
2022/04/19 09:11:52;;;;;;;;;;;15.70;81.40;;;;;;5116731;28;19928;-50
2022/04/19 09:14:17;;;;;;;;;;;15.70;81.50;;;;;;5116657;28;20014;-52
2022/04/19 09:16:43;;;;;;;;;;;15.70;79.70;;;;;;5116603;28;20010;-49
2022/04/19 09:19:09;;;;;;;;;;;16.00;80.30;;;;;;5116465;28;19924;-50
2022/04/19 09:21:37;;;;;;;;;;;15.70;73.30;;;;;;5116505;28;19923;-52
2022/04/19 09:24:14;;;;;;;;;;;15.90;76.30;;;;;;5098170;28;19974;-52
2022/04/19 09:26:44;;;;;;;;;;;15.90;74.70;;;;;;5116517;28;20266;-51
2022/04/19 09:29:20;;;;;;;;;;;15.90;72.90;;;;;;5098805;28;19931;-47
2022/04/19 09:31:45;;;;;;;;;;;16.30;75.40;;;;;;5116279;28;19924;-51
2022/04/19 09:34:22;;;;;;;;;;;16.60;71.60;;;;;;5116153;28;19923;-51
2022/04/19 09:36:51;;;;;;;;;;;16.60;71.60;;;;;;5116470;28;19977;-50
2022/04/19 09:39:26;;;;;;;;;;;16.70;69.80;;;;;;5116166;28;19977;-50
2022/04/19 09:42:21;;;;;;;;;;;16.70;68.20;;;;;;5116209;28;19924;-50
2022/04/19 09:44:50;;;;;;;;;;;16.60;67.10;;;;;;5098184;28;19932;-49
2022/04/19 09:47:15;;;;;;;;;;;16.60;65.50;;;;;;5116080;28;19978;-47
2022/04/19 09:49:51;;;;;;;;;;;16.40;65.40;;;;;;5115986;28;19967;-53
2022/04/19 09:52:36;;;;;;;;;;;16.60;63.80;;;;;;5115558;28;19927;-53
2022/04/19 09:55:08;;;;;;;;;;;16.70;62.50;;;;;;5114775;28;20300;-48
2022/04/19 09:57:36;;;;;;;;;;;16.60;57.30;;;;;;5115534;28;19927;-48
2022/04/19 10:00:02;;;;;;;;;;;16.80;60.10;;;;;;5115635;28;20392;-52
2022/04/19 10:08:13;;;;;;;;;;;16.70;55.90;;;;;;5115403;28;19969;-51
2022/04/19 10:10:40;;;;;;;;;;;16.60;55.90;;;;;;5115609;28;19924;-48
2022/04/19 10:13:06;;;;;;;;;;;16.80;56.30;;;;;;5115801;28;19924;-47
2022/04/19 10:15:32;;;;;;;;;;;16.70;54.50;;;;;;5115386;28;19924;-50
2022/04/19 10:17:57;;;;;;;;;;;16.60;55.30;;;;;;5115336;28;19931;-47
2022/04/19 10:20:32;;;;;;;;;;;16.90;57.30;;;;;;5115227;28;19924;-48
2022/04/19 10:23:05;;;;;;;;;;;16.80;55.10;;;;;;5115393;28;19924;-47
2022/04/19 10:25:43;;;;;;;;;;;17.20;58.10;;;;;;5115178;28;19924;-50
2022/04/19 10:28:09;;;;;;;;;;;16.90;56.40;;;;;;5115101;28;19924;-47
2022/04/19 10:30:35;;;;;;;;;;;16.80;55.50;;;;;;5115015;28;19924;-47
2022/04/19 10:33:01;;;;;;;;;;;17.10;55.70;;;;;;5115092;28;19923;-47
2022/04/19 10:35:26;;;;;;;;;;;17.00;54.00;;;;;;5115198;28;19969;-48
2022/04/19 10:38:10;;;;;;;;;;;17.30;53.60;;;;;;5115050;28;19924;-50
2022/04/19 10:40:56;;;;;;;;;;;17.20;53.60;;;;;;5114943;28;19924;-46
2022/04/19 10:43:22;;;;;;;;;;;17.10;53.10;;;;;;5114436;28;19938;-46
2022/04/19 10:45:47;;;;;;;;;;;17.20;54.20;;;;;;5096778;28;19924;-49
2022/04/19 10:48:14;;;;;;;;;;;17.10;54.10;;;;;;5114988;28;19923;-47
2022/04/19 10:50:40;;;;;;;;;;;17.20;55.70;;;;;;5114744;28;20290;-52
2022/04/19 10:53:10;;;;;;;;;;;17.40;54.90;;;;;;5114452;28;19923;-47
2022/04/19 10:55:36;;;;;;;;;;;17.30;51.40;;;;;;5115009;28;20053;-46
2022/04/19 10:58:16;;;;;;;;;;;17.60;52.70;;;;;;5114416;28;19950;-49
2022/04/19 11:00:42;;;;;;;;;;;17.30;51.30;;;;;;5114698;28;20052;-51
2022/04/19 11:03:11;;;;;;;;;;;17.40;52.80;;;;;;5114543;28;20394;-51
2022/04/19 11:06:09;;;;;;;;;;;17.20;52.30;;;;;;5114349;28;19924;-47
2022/04/19 11:08:37;;;;;;;;;;;17.30;52.20;;;;;;5031691;28;19952;-47
2022/04/19 11:11:02;;;;;;;;;;;17.50;50.20;;;;;;5031559;28;20488;-52
2022/04/19 11:13:32;;;;;;;;;;;17.50;51.60;;;;;;5031662;28;19964;-49
2022/04/19 11:16:13;;;;;;;;;;;17.30;51.50;;;;;;5031594;28;20056;-51
2022/04/19 11:18:41;;;;;;;;;;;17.30;52.90;;;;;;5031210;28;19925;-47
2022/04/19 11:21:08;;;;;;;;;;;17.30;53.00;;;;;;5031432;28;19984;-48
2022/04/19 11:23:46;;;;;;;;;;;17.20;52.30;;;;;;5031388;28;19925;-49
2022/04/19 11:26:36;;;;;;;;;;;17.40;53.00;;;;;;5031347;28;19971;-48
2022/04/19 11:29:10;;;;;;;;;;;17.40;54.60;;;;;;5031375;28;19929;-47
2022/04/19 11:31:36;;;;;;;;;;;17.30;53.20;;;;;;5031376;28;19976;-47
2022/04/19 11:34:10;;;;;;;;;;;17.20;53.50;;;;;;5031213;28;19956;-48
2022/04/19 11:36:35;;;;;;;;;;;17.30;54.10;;;;;;5031158;28;19979;-49
2022/04/19 11:39:01;;;;;;;;;;;17.40;54.40;;;;;;5031049;28;19929;-49
2022/04/19 11:46:55;;;;;;;;;;;17.60;54.80;;;;;;5113831;28;19985;-48
2022/04/19 11:49:25;;;;;;;;;;;17.40;53.10;;;;;;5114154;28;20269;-52
2022/04/19 11:51:52;;;;;;;;;;;17.40;54.00;;;;;;5095242;28;19924;-48
2022/04/19 11:54:18;;;;;;;;;;;17.50;54.60;;;;;;5113898;28;19924;-48
2022/04/19 11:56:44;;;;;;;;;;;17.50;54.40;;;;;;5113805;28;20027;-47
2022/04/19 11:59:09;;;;;;;;;;;17.50;54.70;;;;;;5113723;28;20007;-48
2022/04/19 12:01:36;;;;;;;;;;;17.60;54.80;;;;;;5113820;28;19931;-50
2022/04/19 12:04:09;;;;;;;;;;;17.60;53.90;;;;;;5113652;28;19928;-52
2022/04/19 12:06:34;;;;;;;;;;;17.60;56.40;;;;;;5113586;28;19931;-48
2022/04/19 12:09:00;;;;;;;;;;;17.60;54.80;;;;;;5113660;28;19923;-49
2022/04/19 12:11:26;;;;;;;;;;;17.70;54.90;;;;;;5113604;28;19924;-51
2022/04/19 12:13:52;;;;;;;;;;;17.60;54.40;;;;;;5113818;28;19924;-48
2022/04/19 12:16:34;;;;;;;;;;;17.60;53.80;;;;;;5113593;28;19924;-50
2022/04/19 12:19:01;;;;;;;;;;;17.60;54.00;;;;;;5115645;28;19924;-51
2022/04/19 12:21:38;;;;;;;;;;;17.70;53.40;;;;;;5117771;28;19928;-50
2022/04/19 12:24:20;;;;;;;;;;;17.80;53.00;;;;;;5117719;28;19924;-49
2022/04/19 12:26:49;;;;;;;;;;;17.70;53.40;;;;;;5117487;28;19923;-48
2022/04/19 12:29:16;;;;;;;;;;;17.70;52.90;;;;;;5117791;28;20424;-51
2022/04/19 12:31:44;;;;;;;;;;;17.70;52.60;;;;;;5099455;28;20015;-51
2022/04/19 12:34:11;;;;;;;;;;;17.80;54.70;;;;;;5117425;28;20007;-50
2022/04/19 12:36:47;;;;;;;;;;;17.70;53.60;;;;;;5117445;28;19969;-49
2022/04/19 12:39:13;;;;;;;;;;;17.70;54.10;;;;;;5117171;28;19927;-48
2022/04/19 12:41:40;;;;;;;;;;;17.70;53.60;;;;;;5117230;28;20289;-50
2022/04/19 12:44:09;;;;;;;;;;;17.90;55.40;;;;;;5117099;28;19924;-48
2022/04/19 12:46:41;;;;;;;;;;;18.10;52.80;;;;;;5117300;28;19930;-49
2022/04/19 12:49:07;;;;;;;;;;;18.10;52.40;;;;;;5117210;28;19923;-48
2022/04/19 12:51:35;;;;;;;;;;;18.10;52.30;;;;;;5117014;28;19977;-49
2022/04/19 12:54:05;;;;;;;;;;;18.20;53.50;;;;;;5116929;28;20336;-48
2022/04/19 12:56:30;;;;;;;;;;;18.20;52.50;;;;;;5116810;28;20323;-49
2022/04/19 12:58:55;;;;;;;;;;;18.20;52.70;;;;;;5116958;28;19949;-51
2022/04/19 13:01:21;;;;;;;;;;;18.50;52.90;;;;;;5116972;28;20416;-48
2022/04/19 13:03:46;;;;;;;;;;;18.30;52.10;;;;;;5116923;28;19973;-51
2022/04/19 13:14:24;;;;;;;;;;;18.50;52.60;;;;;;5116629;28;20022;-48
2022/04/19 13:16:50;;;;;;;;;;;18.30;51.30;;;;;;5116645;28;19967;-51
2022/04/19 13:19:15;;;;;;;;;;;18.30;52.30;;;;;;5116492;28;19959;-49
2022/04/19 13:21:41;;;;;;;;;;;18.50;51.90;;;;;;5116334;28;19931;-48
2022/04/19 13:24:06;;;;;;;;;;;18.50;51.10;;;;;;5116587;28;19924;-48
2022/04/19 13:26:32;;;;;;;;;;;18.40;50.00;;;;;;5116455;28;19950;-47
2022/04/19 13:28:58;;;;;;;;;;;18.70;51.30;;;;;;5116421;28;19923;-49
2022/04/19 13:31:23;;;;;;;;;;;18.70;51.20;;;;;;5115234;28;20282;-51
2022/04/19 13:33:50;;;;;;;;;;;18.60;51.30;;;;;;5116266;28;20010;-49
2022/04/19 13:36:16;;;;;;;;;;;18.50;50.20;;;;;;5116102;28;20309;-49
2022/04/19 13:38:41;;;;;;;;;;;18.40;50.20;;;;;;5116028;28;19923;-49
2022/04/19 13:41:07;;;;;;;;;;;18.40;50.80;;;;;;5116377;28;19931;-48
2022/04/19 13:43:32;;;;;;;;;;;18.40;50.50;;;;;;5115908;28;19924;-48
2022/04/19 13:45:58;;;;;;;;;;;18.50;51.40;;;;;;5115781;28;19931;-48
2022/04/19 13:48:23;;;;;;;;;;;18.50;51.10;;;;;;5116099;28;20018;-48
2022/04/19 13:50:50;;;;;;;;;;;18.60;50.70;;;;;;5115543;28;20430;-52
2022/04/19 13:53:15;;;;;;;;;;;18.70;49.60;;;;;;5097872;28;19923;-49
2022/04/19 13:55:40;;;;;;;;;;;18.70;49.00;;;;;;5115870;28;19961;-50
2022/04/19 13:58:07;;;;;;;;;;;18.50;49.20;;;;;;5115814;28;19971;-51
2022/04/19 14:00:32;;;;;;;;;;;18.60;49.50;;;;;;5115784;28;19931;-49
2022/04/19 14:02:58;;;;;;;;;;;18.90;50.20;;;;;;5115612;28;20436;-49
2022/04/19 14:05:23;;;;;;;;;;;18.90;49.80;;;;;;5115610;28;19924;-50
2022/04/19 14:07:49;;;;;;;;;;;19.00;50.00;;;;;;5115706;28;19923;-49
2022/04/19 14:10:14;;;;;;;;;;;18.90;48.50;;;;;;5115562;28;19923;-52
2022/04/19 14:12:41;;;;;;;;;;;18.90;48.40;;;;;;5115600;28;19924;-48
2022/04/19 14:15:07;;;;;;;;;;;18.70;49.30;;;;;;5115437;28;19961;-50
2022/04/19 14:17:33;;;;;;;;;;;18.70;49.30;;;;;;5115328;28;20007;-48
2022/04/19 14:19:58;;;;;;;;;;;18.60;49.20;;;;;;5115219;28;20413;-52
2022/04/19 14:22:24;;;;;;;;;;;18.80;50.80;;;;;;5115112;28;19947;-52
2022/04/19 14:24:50;;;;;;;;;;;18.90;49.60;;;;;;5115498;28;19928;-49
2022/04/19 14:27:16;;;;;;;;;;;18.80;48.10;;;;;;5115126;28;19949;-49
2022/04/19 14:35:09;;;;;;;;;;;19.10;50.00;;;;;;5115262;28;19931;-49
2022/04/19 14:37:35;;;;;;;;;;;19.20;50.60;;;;;;5114999;28;19924;-49
2022/04/19 14:40:00;;;;;;;;;;;19.20;49.70;;;;;;5115009;28;19930;-48
2022/04/19 14:42:26;;;;;;;;;;;19.30;49.30;;;;;;5114593;28;19993;-49
2022/04/19 14:44:51;;;;;;;;;;;19.20;48.80;;;;;;5114763;28;20311;-50
2022/04/19 14:47:17;;;;;;;;;;;19.00;48.50;;;;;;5114950;28;19924;-48
2022/04/19 14:49:42;;;;;;;;;;;19.10;49.40;;;;;;5114826;28;19931;-50
2022/04/19 14:52:14;;;;;;;;;;;19.10;49.50;;;;;;5114503;28;19924;-51
2022/04/19 14:54:42;;;;;;;;;;;19.10;50.10;;;;;;5114816;28;20018;-50
2022/04/19 14:57:07;;;;;;;;;;;19.20;49.40;;;;;;5114684;28;19924;-48
2022/04/19 14:59:33;;;;;;;;;;;18.90;48.60;;;;;;5114286;28;19924;-49
2022/04/19 15:01:59;;;;;;;;;;;18.90;48.20;;;;;;5114473;28;19923;-49
2022/04/19 15:04:25;;;;;;;;;;;18.90;49.20;;;;;;5114426;28;20305;-51
2022/04/19 15:06:51;;;;;;;;;;;19.10;48.70;;;;;;5114329;28;20466;-48
2022/04/19 15:09:17;;;;;;;;;;;19.10;49.40;;;;;;5114439;28;19927;-51
2022/04/19 15:11:42;;;;;;;;;;;18.70;47.90;;;;;;5114356;28;19976;-50
2022/04/19 15:14:08;;;;;;;;;;;18.70;49.20;;;;;;5114500;28;19963;-49